sensor_id;sensor_type;location;lat;lon;timestamp;pressure;altitude;pressure_sealevel;temperature;humidity
17060;BME280;8646;49.716;9.266;2024-03-29T00:02:59;98629.41;;;6.21;86.05
17060;BME280;8646;49.716;9.266;2024-03-29T00:06:01;98628.28;;;6.25;86.02
17060;BME280;8646;49.716;9.266;2024-03-29T00:09:02;98628.06;;;6.12;85.91
17060;BME280;8646;49.716;9.266;2024-03-29T00:12:03;98621.09;;;6.08;85.70
17060;BME280;8646;49.716;9.266;2024-03-29T00:15:05;98569.78;;;5.97;84.66
17060;BME280;8646;49.716;9.266;2024-03-29T00:18:06;98590.78;;;6.24;84.30
17060;BME280;8646;49.716;9.266;2024-03-29T00:21:09;98594.63;;;6.18;84.39
17060;BME280;8646;49.716;9.266;2024-03-29T00:24:09;98547.44;;;5.97;84.72
17060;BME280;8646;49.716;9.266;2024-03-29T00:27:10;98562.66;;;5.96;85.38
17060;BME280;8646;49.716;9.266;2024-03-29T00:30:12;98560.84;;;6.14;85.93
17060;BME280;8646;49.716;9.266;2024-03-29T00:33:12;98559.41;;;6.24;85.48
17060;BME280;8646;49.716;9.266;2024-03-29T00:36:15;98571.56;;;6.31;86.27
17060;BME280;8646;49.716;9.266;2024-03-29T00:39:16;98564.53;;;6.29;86.53
17060;BME280;8646;49.716;9.266;2024-03-29T00:42:16;98555.28;;;6.17;87.26
17060;BME280;8646;49.716;9.266;2024-03-29T00:45:17;98570.78;;;6.29;86.29
17060;BME280;8646;49.716;9.266;2024-03-29T00:48:18;98562.09;;;6.24;86.50
17060;BME280;8646;49.716;9.266;2024-03-29T00:51:20;98551.03;;;6.30;86.11
17060;BME280;8646;49.716;9.266;2024-03-29T00:54:21;98568.22;;;6.43;85.96
17060;BME280;8646;49.716;9.266;2024-03-29T00:57:22;98567.00;;;6.49;85.49
17060;BME280;8646;49.716;9.266;2024-03-29T01:00:23;98547.44;;;6.47;85.17
17060;BME280;8646;49.716;9.266;2024-03-29T01:03:24;98544.88;;;6.61;84.72
17060;BME280;8646;49.716;9.266;2024-03-29T01:06:26;98551.59;;;6.53;84.57
17060;BME280;8646;49.716;9.266;2024-03-29T01:09:27;98551.44;;;6.56;84.32
17060;BME280;8646;49.716;9.266;2024-03-29T01:12:28;98517.94;;;6.30;85.22
17060;BME280;8646;49.716;9.266;2024-03-29T01:15:28;98550.53;;;6.39;85.36
17060;BME280;8646;49.716;9.266;2024-03-29T01:18:29;98537.66;;;6.62;84.64
17060;BME280;8646;49.716;9.266;2024-03-29T01:21:32;98501.78;;;6.78;81.96
17060;BME280;8646;49.716;9.266;2024-03-29T01:24:32;98519.91;;;7.06;81.58
17060;BME280;8646;49.716;9.266;2024-03-29T01:27:34;98521.63;;;6.76;82.64
17060;BME280;8646;49.716;9.266;2024-03-29T01:30:34;98498.06;;;6.81;82.33
17060;BME280;8646;49.716;9.266;2024-03-29T01:33:35;98516.91;;;6.97;82.40
17060;BME280;8646;49.716;9.266;2024-03-29T01:36:38;98447.84;;;6.66;81.90
17060;BME280;8646;49.716;9.266;2024-03-29T01:39:39;98509.78;;;7.11;81.52
17060;BME280;8646;49.716;9.266;2024-03-29T01:42:40;98489.78;;;7.15;80.92
17060;BME280;8646;49.716;9.266;2024-03-29T01:45:41;98471.59;;;7.05;81.28
17060;BME280;8646;49.716;9.266;2024-03-29T01:48:43;98470.13;;;6.99;81.92
17060;BME280;8646;49.716;9.266;2024-03-29T01:51:47;98473.94;;;6.95;82.21
17060;BME280;8646;49.716;9.266;2024-03-29T01:54:49;98475.06;;;7.07;80.94
17060;BME280;8646;49.716;9.266;2024-03-29T01:57:51;98475.06;;;6.91;81.64
17060;BME280;8646;49.716;9.266;2024-03-29T02:00:55;98440.13;;;6.60;81.48
17060;BME280;8646;49.716;9.266;2024-03-29T02:03:58;98499.59;;;7.16;80.69
17060;BME280;8646;49.716;9.266;2024-03-29T02:07:02;98485.31;;;6.84;81.31
17060;BME280;8646;49.716;9.266;2024-03-29T02:10:05;98478.16;;;7.15;80.92
17060;BME280;8646;49.716;9.266;2024-03-29T02:13:08;98452.44;;;6.95;81.21
17060;BME280;8646;49.716;9.266;2024-03-29T02:16:10;98465.38;;;7.04;79.97
17060;BME280;8646;49.716;9.266;2024-03-29T02:19:12;98476.56;;;6.97;81.14
17060;BME280;8646;49.716;9.266;2024-03-29T02:22:17;98435.88;;;7.03;79.74
17060;BME280;8646;49.716;9.266;2024-03-29T02:25:20;98388.13;;;6.61;80.32
17060;BME280;8646;49.716;9.266;2024-03-29T02:28:23;98451.09;;;7.48;77.88
17060;BME280;8646;49.716;9.266;2024-03-29T02:31:26;98461.66;;;7.37;78.27
17060;BME280;8646;49.716;9.266;2024-03-29T02:34:28;98468.66;;;7.39;77.97
17060;BME280;8646;49.716;9.266;2024-03-29T02:37:29;98488.78;;;7.48;77.45
17060;BME280;8646;49.716;9.266;2024-03-29T02:40:33;98493.81;;;7.54;77.03
17060;BME280;8646;49.716;9.266;2024-03-29T02:43:34;98463.31;;;7.23;77.58
17060;BME280;8646;49.716;9.266;2024-03-29T02:46:36;98490.16;;;7.55;77.02
17060;BME280;8646;49.716;9.266;2024-03-29T02:49:38;98407.16;;;7.03;77.22
17060;BME280;8646;49.716;9.266;2024-03-29T02:52:39;98500.66;;;7.30;78.33
17060;BME280;8646;49.716;9.266;2024-03-29T02:55:42;98504.28;;;7.28;78.26
17060;BME280;8646;49.716;9.266;2024-03-29T02:58:43;98511.03;;;7.36;78.08
17060;BME280;8646;49.716;9.266;2024-03-29T03:01:45;98487.25;;;7.44;77.05
17060;BME280;8646;49.716;9.266;2024-03-29T03:04:46;98471.16;;;7.72;76.27
17060;BME280;8646;49.716;9.266;2024-03-29T03:07:47;98438.66;;;7.61;76.67
17060;BME280;8646;49.716;9.266;2024-03-29T03:11:08;98469.09;;;7.77;75.50
17060;BME280;8646;49.716;9.266;2024-03-29T03:14:10;98470.63;;;7.81;74.15
17060;BME280;8646;49.716;9.266;2024-03-29T03:17:11;98482.25;;;7.82;74.38
17060;BME280;8646;49.716;9.266;2024-03-29T03:20:14;98490.16;;;7.55;75.59
17060;BME280;8646;49.716;9.266;2024-03-29T03:23:16;98494.78;;;7.83;74.58
17060;BME280;8646;49.716;9.266;2024-03-29T03:26:20;98499.84;;;7.73;74.98
17060;BME280;8646;49.716;9.266;2024-03-29T03:29:20;98516.13;;;7.56;75.83
17060;BME280;8646;49.716;9.266;2024-03-29T03:32:22;98499.75;;;7.45;76.66
17060;BME280;8646;49.716;9.266;2024-03-29T03:35:23;98444.28;;;7.12;77.14
17060;BME280;8646;49.716;9.266;2024-03-29T03:38:25;98492.47;;;7.31;77.24
17060;BME280;8646;49.716;9.266;2024-03-29T03:41:28;98491.84;;;7.42;77.63
17060;BME280;8646;49.716;9.266;2024-03-29T03:44:29;98514.16;;;7.44;77.45
17060;BME280;8646;49.716;9.266;2024-03-29T03:47:30;98509.28;;;7.50;76.07
17060;BME280;8646;49.716;9.266;2024-03-29T03:50:32;98480.63;;;7.49;75.42
17060;BME280;8646;49.716;9.266;2024-03-29T03:53:33;98504.44;;;8.15;72.49
17060;BME280;8646;49.716;9.266;2024-03-29T03:56:36;98488.66;;;7.65;73.94
17060;BME280;8646;49.716;9.266;2024-03-29T03:59:38;98515.81;;;7.76;74.15
17060;BME280;8646;49.716;9.266;2024-03-29T04:02:38;98499.78;;;7.59;74.64
17060;BME280;8646;49.716;9.266;2024-03-29T04:05:40;98506.34;;;7.99;73.58
17060;BME280;8646;49.716;9.266;2024-03-29T04:08:43;98501.75;;;7.71;74.26
17060;BME280;8646;49.716;9.266;2024-03-29T04:11:46;98517.91;;;7.71;75.12
17060;BME280;8646;49.716;9.266;2024-03-29T04:14:47;98457.66;;;7.44;74.72
17060;BME280;8646;49.716;9.266;2024-03-29T04:17:49;98515.81;;;7.76;74.97
17060;BME280;8646;49.716;9.266;2024-03-29T04:20:56;98539.25;;;7.74;75.07
17060;BME280;8646;49.716;9.266;2024-03-29T04:23:57;98530.59;;;7.69;75.53
17060;BME280;8646;49.716;9.266;2024-03-29T04:27:00;98531.13;;;7.90;75.42
17060;BME280;8646;49.716;9.266;2024-03-29T04:30:02;98549.75;;;7.79;75.38
17060;BME280;8646;49.716;9.266;2024-03-29T04:33:03;98536.16;;;7.66;75.86
17060;BME280;8646;49.716;9.266;2024-03-29T04:36:05;98529.25;;;7.62;76.39
17060;BME280;8646;49.716;9.266;2024-03-29T04:39:07;98519.22;;;7.64;76.65
17060;BME280;8646;49.716;9.266;2024-03-29T04:42:10;98514.03;;;7.91;76.04
17060;BME280;8646;49.716;9.266;2024-03-29T04:45:13;98518.25;;;7.65;77.23
17060;BME280;8646;49.716;9.266;2024-03-29T04:48:14;98486.16;;;7.62;78.13
17060;BME280;8646;49.716;9.266;2024-03-29T04:51:16;98504.19;;;7.76;80.71
17060;BME280;8646;49.716;9.266;2024-03-29T04:54:18;98493.25;;;7.63;83.02
17060;BME280;8646;49.716;9.266;2024-03-29T04:57:21;98495.84;;;7.35;86.70
17060;BME280;8646;49.716;9.266;2024-03-29T05:00:23;98514.88;;;7.00;90.22
17060;BME280;8646;49.716;9.266;2024-03-29T05:03:25;98513.22;;;6.98;91.79
17060;BME280;8646;49.716;9.266;2024-03-29T05:06:27;98514.53;;;6.90;93.40
17060;BME280;8646;49.716;9.266;2024-03-29T05:09:28;98520.69;;;6.77;95.22
17060;BME280;8646;49.716;9.266;2024-03-29T05:12:32;98521.47;;;6.79;95.53
17060;BME280;8646;49.716;9.266;2024-03-29T05:15:33;98528.22;;;6.70;97.19
17060;BME280;8646;49.716;9.266;2024-03-29T05:18:35;98518.34;;;6.71;96.96
17060;BME280;8646;49.716;9.266;2024-03-29T05:21:37;98527.47;;;6.84;97.56
17060;BME280;8646;49.716;9.266;2024-03-29T05:24:39;98527.47;;;6.84;98.70
17060;BME280;8646;49.716;9.266;2024-03-29T05:27:42;98533.69;;;6.69;99.05
17060;BME280;8646;49.716;9.266;2024-03-29T05:30:43;98529.78;;;6.90;99.35
17060;BME280;8646;49.716;9.266;2024-03-29T05:33:45;98533.28;;;6.92;98.53
17060;BME280;8646;49.716;9.266;2024-03-29T05:36:47;98532.84;;;6.84;99.78
17060;BME280;8646;49.716;9.266;2024-03-29T05:39:49;98524.25;;;6.93;99.17
17060;BME280;8646;49.716;9.266;2024-03-29T05:43:00;98528.25;;;6.86;99.48
17060;BME280;8646;49.716;9.266;2024-03-29T05:46:02;98495.09;;;6.70;99.26
17060;BME280;8646;49.716;9.266;2024-03-29T05:49:04;98511.59;;;6.95;98.55
17060;BME280;8646;49.716;9.266;2024-03-29T05:52:06;98516.09;;;6.95;97.59
17060;BME280;8646;49.716;9.266;2024-03-29T05:55:08;98506.38;;;6.92;97.86
17060;BME280;8646;49.716;9.266;2024-03-29T05:58:11;98520.25;;;6.84;97.27
17060;BME280;8646;49.716;9.266;2024-03-29T06:01:17;98505.44;;;6.93;98.19
17060;BME280;8646;49.716;9.266;2024-03-29T06:04:19;98496.69;;;7.05;97.35
17060;BME280;8646;49.716;9.266;2024-03-29T06:07:29;98491.03;;;7.10;96.29
17060;BME280;8646;49.716;9.266;2024-03-29T06:10:33;98474.56;;;6.84;97.74
17060;BME280;8646;49.716;9.266;2024-03-29T06:13:36;98497.88;;;7.00;97.74
17060;BME280;8646;49.716;9.266;2024-03-29T06:16:55;98507.25;;;6.93;98.28
17060;BME280;8646;49.716;9.266;2024-03-29T06:20:14;98499.25;;;6.91;99.11
17060;BME280;8646;49.716;9.266;2024-03-29T06:23:16;98513.22;;;6.82;99.74
17060;BME280;8646;49.716;9.266;2024-03-29T06:26:17;98518.00;;;6.93;99.52
17060;BME280;8646;49.716;9.266;2024-03-29T06:29:20;98506.03;;;7.30;97.46
17060;BME280;8646;49.716;9.266;2024-03-29T06:32:22;98519.63;;;7.42;96.21
17060;BME280;8646;49.716;9.266;2024-03-29T06:35:24;98522.16;;;7.45;95.95
17060;BME280;8646;49.716;9.266;2024-03-29T06:38:26;98529.69;;;7.39;96.13
17060;BME280;8646;49.716;9.266;2024-03-29T06:41:27;98520.41;;;7.44;95.48
17060;BME280;8646;49.716;9.266;2024-03-29T06:44:30;98457.47;;;7.01;96.17
17060;BME280;8646;49.716;9.266;2024-03-29T06:47:32;98527.28;;;7.64;95.39
17060;BME280;8646;49.716;9.266;2024-03-29T06:50:34;98523.56;;;7.66;95.18
17060;BME280;8646;49.716;9.266;2024-03-29T06:53:36;98503.59;;;7.55;95.00
17060;BME280;8646;49.716;9.266;2024-03-29T06:56:38;98459.19;;;7.48;95.45
17060;BME280;8646;49.716;9.266;2024-03-29T06:59:41;98509.88;;;7.55;96.03
17060;BME280;8646;49.716;9.266;2024-03-29T07:02:43;98513.13;;;7.76;95.30
17060;BME280;8646;49.716;9.266;2024-03-29T07:05:45;98502.75;;;7.84;95.34
17060;BME280;8646;49.716;9.266;2024-03-29T07:08:47;98518.47;;;7.62;96.24
17060;BME280;8646;49.716;9.266;2024-03-29T07:11:51;98490.28;;;7.53;96.85
17060;BME280;8646;49.716;9.266;2024-03-29T07:14:54;98486.72;;;7.97;94.68
17060;BME280;8646;49.716;9.266;2024-03-29T07:17:56;98475.75;;;8.00;93.81
17060;BME280;8646;49.716;9.266;2024-03-29T07:20:59;98471.41;;;7.97;94.57
17060;BME280;8646;49.716;9.266;2024-03-29T07:24:00;98395.19;;;7.53;94.00
17060;BME280;8646;49.716;9.266;2024-03-29T07:27:02;98482.00;;;7.86;95.17
17060;BME280;8646;49.716;9.266;2024-03-29T07:30:07;98471.00;;;7.75;94.77
17060;BME280;8646;49.716;9.266;2024-03-29T07:33:10;98409.63;;;7.52;95.52
17060;BME280;8646;49.716;9.266;2024-03-29T07:36:15;98463.00;;;8.18;94.06
17060;BME280;8646;49.716;9.266;2024-03-29T07:39:17;98463.63;;;7.93;94.68
17060;BME280;8646;49.716;9.266;2024-03-29T07:42:19;98475.00;;;8.12;95.06
17060;BME280;8646;49.716;9.266;2024-03-29T07:45:22;98476.63;;;8.15;95.62
17060;BME280;8646;49.716;9.266;2024-03-29T07:48:24;98454.50;;;8.10;95.85
17060;BME280;8646;49.716;9.266;2024-03-29T07:51:26;98471.22;;;8.86;92.25
17060;BME280;8646;49.716;9.266;2024-03-29T07:54:28;98479.50;;;8.97;89.43
17060;BME280;8646;49.716;9.266;2024-03-29T07:57:29;98405.44;;;8.47;89.72
17060;BME280;8646;49.716;9.266;2024-03-29T08:00:33;98487.22;;;8.89;90.17
17060;BME280;8646;49.716;9.266;2024-03-29T08:03:35;98430.56;;;8.48;91.13
17060;BME280;8646;49.716;9.266;2024-03-29T08:06:37;98491.97;;;9.12;89.79
17060;BME280;8646;49.716;9.266;2024-03-29T08:09:39;98492.06;;;8.84;90.55
17060;BME280;8646;49.716;9.266;2024-03-29T08:12:40;98505.66;;;9.09;90.29
17060;BME280;8646;49.716;9.266;2024-03-29T08:15:44;98510.31;;;9.07;90.40
17060;BME280;8646;49.716;9.266;2024-03-29T08:18:46;98511.28;;;9.06;90.29
17060;BME280;8646;49.716;9.266;2024-03-29T08:21:48;98498.16;;;9.14;89.56
17060;BME280;8646;49.716;9.266;2024-03-29T08:24:50;98513.75;;;9.09;90.17
17060;BME280;8646;49.716;9.266;2024-03-29T08:27:52;98514.25;;;9.15;90.08
17060;BME280;8646;49.716;9.266;2024-03-29T08:31:01;98498.88;;;8.89;91.21
17060;BME280;8646;49.716;9.266;2024-03-29T08:34:03;98531.44;;;8.86;91.87
17060;BME280;8646;49.716;9.266;2024-03-29T08:37:07;98535.59;;;8.92;91.82
17060;BME280;8646;49.716;9.266;2024-03-29T08:40:10;98525.63;;;8.92;93.30
17060;BME280;8646;49.716;9.266;2024-03-29T08:43:12;98519.03;;;8.84;94.50
17060;BME280;8646;49.716;9.266;2024-03-29T08:46:15;98503.81;;;8.54;94.64
17060;BME280;8646;49.716;9.266;2024-03-29T08:49:17;98516.25;;;8.43;96.90
17060;BME280;8646;49.716;9.266;2024-03-29T08:52:19;98549.66;;;8.68;97.70
17060;BME280;8646;49.716;9.266;2024-03-29T08:55:21;98539.72;;;8.55;99.29
17060;BME280;8646;49.716;9.266;2024-03-29T08:58:23;98549.00;;;8.65;100.00
17060;BME280;8646;49.716;9.266;2024-03-29T09:01:27;98559.28;;;8.58;100.00
17060;BME280;8646;49.716;9.266;2024-03-29T09:04:29;98575.66;;;8.41;100.00
17060;BME280;8646;49.716;9.266;2024-03-29T09:07:31;98576.13;;;8.48;100.00
17060;BME280;8646;49.716;9.266;2024-03-29T09:10:32;98540.16;;;8.19;100.00
17060;BME280;8646;49.716;9.266;2024-03-29T09:13:34;98590.97;;;8.55;100.00
17060;BME280;8646;49.716;9.266;2024-03-29T09:16:38;98596.81;;;8.61;100.00
17060;BME280;8646;49.716;9.266;2024-03-29T09:19:40;98463.59;;;7.79;100.00
17060;BME280;8646;49.716;9.266;2024-03-29T09:22:43;98606.56;;;8.50;100.00
17060;BME280;8646;49.716;9.266;2024-03-29T09:25:44;98600.88;;;8.54;100.00
17060;BME280;8646;49.716;9.266;2024-03-29T09:28:46;98620.34;;;8.59;100.00
17060;BME280;8646;49.716;9.266;2024-03-29T09:31:49;98592.78;;;8.68;100.00
17060;BME280;8646;49.716;9.266;2024-03-29T09:34:51;98631.41;;;8.69;100.00
17060;BME280;8646;49.716;9.266;2024-03-29T09:37:53;98635.56;;;8.74;100.00
17060;BME280;8646;49.716;9.266;2024-03-29T09:41:03;98639.78;;;8.64;100.00
17060;BME280;8646;49.716;9.266;2024-03-29T09:44:08;98660.19;;;8.68;100.00
17060;BME280;8646;49.716;9.266;2024-03-29T09:47:14;98648.47;;;8.69;100.00
17060;BME280;8646;49.716;9.266;2024-03-29T09:50:16;98648.75;;;8.93;100.00
17060;BME280;8646;49.716;9.266;2024-03-29T09:53:19;98655.19;;;8.76;100.00
17060;BME280;8646;49.716;9.266;2024-03-29T09:56:25;98660.41;;;8.79;100.00
17060;BME280;8646;49.716;9.266;2024-03-29T09:59:27;98652.34;;;8.94;100.00
17060;BME280;8646;49.716;9.266;2024-03-29T10:02:32;98640.00;;;8.90;100.00
17060;BME280;8646;49.716;9.266;2024-03-29T10:05:35;98663.31;;;9.19;100.00
17060;BME280;8646;49.716;9.266;2024-03-29T10:08:37;98643.81;;;9.42;100.00
17060;BME280;8646;49.716;9.266;2024-03-29T10:11:39;98658.00;;;9.46;100.00
17060;BME280;8646;49.716;9.266;2024-03-29T10:14:45;98667.00;;;9.73;100.00
17060;BME280;8646;49.716;9.266;2024-03-29T10:17:51;98664.66;;;9.95;100.00
17060;BME280;8646;49.716;9.266;2024-03-29T10:21:03;98625.94;;;9.95;100.00
17060;BME280;8646;49.716;9.266;2024-03-29T10:24:11;98664.28;;;10.41;100.00
17060;BME280;8646;49.716;9.266;2024-03-29T10:27:14;98603.69;;;10.31;100.00
17060;BME280;8646;49.716;9.266;2024-03-29T10:30:16;98645.72;;;10.75;100.00
17060;BME280;8646;49.716;9.266;2024-03-29T10:33:22;98651.25;;;10.98;100.00
17060;BME280;8646;49.716;9.266;2024-03-29T10:36:25;98661.56;;;11.19;100.00
17060;BME280;8646;49.716;9.266;2024-03-29T10:39:29;98658.81;;;11.31;100.00
17060;BME280;8646;49.716;9.266;2024-03-29T10:42:31;98541.94;;;10.88;100.00
17060;BME280;8646;49.716;9.266;2024-03-29T10:45:34;98601.41;;;11.39;100.00
17060;BME280;8646;49.716;9.266;2024-03-29T10:48:39;98638.81;;;11.83;99.48
17060;BME280;8646;49.716;9.266;2024-03-29T10:51:43;98603.69;;;11.81;96.58
17060;BME280;8646;49.716;9.266;2024-03-29T10:54:45;98629.25;;;11.90;92.99
17060;BME280;8646;49.716;9.266;2024-03-29T10:57:49;98515.72;;;11.01;93.79
17060;BME280;8646;49.716;9.266;2024-03-29T11:00:56;98616.50;;;11.67;95.16
17060;BME280;8646;49.716;9.266;2024-03-29T11:04:05;98603.34;;;11.50;95.54
17060;BME280;8646;49.716;9.266;2024-03-29T11:07:18;98606.56;;;11.55;97.81
17060;BME280;8646;49.716;9.266;2024-03-29T11:10:25;98564.47;;;11.74;95.63
17060;BME280;8646;49.716;9.266;2024-03-29T11:13:33;98580.59;;;11.76;96.62
17060;BME280;8646;49.716;9.266;2024-03-29T11:16:36;98568.09;;;11.86;96.48
17060;BME280;8646;49.716;9.266;2024-03-29T11:19:41;98564.66;;;12.19;94.84
17060;BME280;8646;49.716;9.266;2024-03-29T11:22:44;98467.53;;;11.78;94.23
17060;BME280;8646;49.716;9.266;2024-03-29T11:25:49;98562.28;;;12.49;92.29
17060;BME280;8646;49.716;9.266;2024-03-29T11:28:54;98459.97;;;11.94;92.55
17060;BME280;8646;49.716;9.266;2024-03-29T11:31:57;98568.50;;;12.74;90.85
17060;BME280;8646;49.716;9.266;2024-03-29T11:35:01;98501.13;;;12.68;90.88
17060;BME280;8646;49.716;9.266;2024-03-29T11:38:03;98533.72;;;12.90;90.75
17060;BME280;8646;49.716;9.266;2024-03-29T11:41:06;98514.59;;;13.14;87.86
17060;BME280;8646;49.716;9.266;2024-03-29T11:44:08;98517.91;;;13.06;89.39
17060;BME280;8646;49.716;9.266;2024-03-29T11:47:13;98370.53;;;12.16;88.86
17060;BME280;8646;49.716;9.266;2024-03-29T11:50:17;98504.59;;;12.92;89.35
17060;BME280;8646;49.716;9.266;2024-03-29T11:53:20;98463.28;;;12.66;89.24
17060;BME280;8646;49.716;9.266;2024-03-29T11:56:22;98516.69;;;12.77;90.16
17060;BME280;8646;49.716;9.266;2024-03-29T11:59:24;98489.28;;;12.57;89.07
17060;BME280;8646;49.716;9.266;2024-03-29T12:02:26;98510.25;;;12.44;90.92
17060;BME280;8646;49.716;9.266;2024-03-29T12:05:29;98451.41;;;12.22;90.96
17060;BME280;8646;49.716;9.266;2024-03-29T12:08:33;98499.38;;;12.33;91.95
17060;BME280;8646;49.716;9.266;2024-03-29T12:11:35;98483.25;;;12.32;91.28
17060;BME280;8646;49.716;9.266;2024-03-29T12:14:37;98522.56;;;12.37;91.39
17060;BME280;8646;49.716;9.266;2024-03-29T12:17:39;98520.78;;;12.25;91.54
17060;BME280;8646;49.716;9.266;2024-03-29T12:20:45;98519.97;;;11.90;92.69
17060;BME280;8646;49.716;9.266;2024-03-29T12:23:50;98548.53;;;11.94;93.56
17060;BME280;8646;49.716;9.266;2024-03-29T12:26:52;98557.16;;;11.88;93.93
17060;BME280;8646;49.716;9.266;2024-03-29T12:29:54;98465.25;;;11.37;93.62
17060;BME280;8646;49.716;9.266;2024-03-29T12:33:02;98574.00;;;11.80;94.72
17060;BME280;8646;49.716;9.266;2024-03-29T12:36:08;98549.16;;;11.50;95.30
17060;BME280;8646;49.716;9.266;2024-03-29T12:39:16;98585.22;;;11.87;95.06
17060;BME280;8646;49.716;9.266;2024-03-29T12:42:19;98433.75;;;10.76;96.13
17060;BME280;8646;49.716;9.266;2024-03-29T12:45:22;98549.00;;;11.27;97.00
17060;BME280;8646;49.716;9.266;2024-03-29T12:48:24;98613.66;;;11.68;97.50
17060;BME280;8646;49.716;9.266;2024-03-29T12:51:28;98614.53;;;11.69;98.77
17060;BME280;8646;49.716;9.266;2024-03-29T12:54:31;98636.47;;;11.53;100.00
17060;BME280;8646;49.716;9.266;2024-03-29T12:57:32;98647.78;;;11.34;100.00
17060;BME280;8646;49.716;9.266;2024-03-29T13:00:35;98539.16;;;10.64;100.00
17060;BME280;8646;49.716;9.266;2024-03-29T13:03:36;98618.88;;;10.97;100.00
17060;BME280;8646;49.716;9.266;2024-03-29T13:06:42;98544.56;;;10.52;100.00
17060;BME280;8646;49.716;9.266;2024-03-29T13:09:45;98662.28;;;11.21;100.00
17060;BME280;8646;49.716;9.266;2024-03-29T13:12:47;98619.44;;;11.02;100.00
17060;BME280;8646;49.716;9.266;2024-03-29T13:15:50;98674.66;;;11.25;100.00
17060;BME280;8646;49.716;9.266;2024-03-29T13:18:52;98566.63;;;10.84;100.00
17060;BME280;8646;49.716;9.266;2024-03-29T13:21:56;98525.41;;;10.55;100.00
17060;BME280;8646;49.716;9.266;2024-03-29T13:24:59;98659.03;;;11.28;100.00
17060;BME280;8646;49.716;9.266;2024-03-29T13:28:01;98556.56;;;10.73;100.00
17060;BME280;8646;49.716;9.266;2024-03-29T13:31:03;98572.34;;;10.79;100.00
17060;BME280;8646;49.716;9.266;2024-03-29T13:34:05;98586.44;;;10.84;100.00
17060;BME280;8646;49.716;9.266;2024-03-29T13:37:14;98653.31;;;11.07;100.00
17060;BME280;8646;49.716;9.266;2024-03-29T13:40:17;98631.97;;;11.16;100.00
17060;BME280;8646;49.716;9.266;2024-03-29T13:43:19;98653.44;;;11.19;100.00
17060;BME280;8646;49.716;9.266;2024-03-29T13:46:22;98622.56;;;11.08;100.00
17060;BME280;8646;49.716;9.266;2024-03-29T13:49:29;98667.06;;;11.17;100.00
17060;BME280;8646;49.716;9.266;2024-03-29T13:52:33;98619.66;;;10.86;100.00
17060;BME280;8646;49.716;9.266;2024-03-29T13:55:35;98674.22;;;11.05;100.00
17060;BME280;8646;49.716;9.266;2024-03-29T13:58:37;98648.66;;;10.97;100.00
17060;BME280;8646;49.716;9.266;2024-03-29T14:01:39;98642.59;;;11.06;100.00
17060;BME280;8646;49.716;9.266;2024-03-29T14:04:41;98661.09;;;11.37;100.00
17060;BME280;8646;49.716;9.266;2024-03-29T14:07:44;98654.78;;;11.37;100.00
17060;BME280;8646;49.716;9.266;2024-03-29T14:10:49;98666.53;;;10.99;100.00
17060;BME280;8646;49.716;9.266;2024-03-29T14:13:53;98678.78;;;11.18;100.00
17060;BME280;8646;49.716;9.266;2024-03-29T14:16:56;98659.06;;;10.90;100.00
17060;BME280;8646;49.716;9.266;2024-03-29T14:19:59;98669.22;;;10.87;100.00
17060;BME280;8646;49.716;9.266;2024-03-29T14:23:02;98715.91;;;11.16;100.00
17060;BME280;8646;49.716;9.266;2024-03-29T14:26:06;98703.88;;;11.20;100.00
17060;BME280;8646;49.716;9.266;2024-03-29T14:29:08;98690.91;;;11.25;100.00
17060;BME280;8646;49.716;9.266;2024-03-29T14:32:12;98656.13;;;11.31;100.00
17060;BME280;8646;49.716;9.266;2024-03-29T14:35:14;98630.63;;;11.46;100.00
17060;BME280;8646;49.716;9.266;2024-03-29T14:38:18;98612.38;;;11.61;100.00
17060;BME280;8646;49.716;9.266;2024-03-29T14:41:22;98608.72;;;11.75;100.00
17060;BME280;8646;49.716;9.266;2024-03-29T14:44:24;98536.78;;;11.22;100.00
17060;BME280;8646;49.716;9.266;2024-03-29T14:47:26;98633.38;;;11.70;100.00
17060;BME280;8646;49.716;9.266;2024-03-29T14:50:28;98666.34;;;11.77;100.00
17060;BME280;8646;49.716;9.266;2024-03-29T14:53:31;98715.47;;;11.47;100.00
17060;BME280;8646;49.716;9.266;2024-03-29T14:56:33;98651.16;;;11.25;100.00
17060;BME280;8646;49.716;9.266;2024-03-29T14:59:36;98662.47;;;11.56;100.00
17060;BME280;8646;49.716;9.266;2024-03-29T15:02:39;98644.47;;;11.67;100.00
17060;BME280;8646;49.716;9.266;2024-03-29T15:05:41;98643.09;;;11.85;100.00
17060;BME280;8646;49.716;9.266;2024-03-29T15:08:44;98627.81;;;11.84;100.00
17060;BME280;8646;49.716;9.266;2024-03-29T15:11:46;98628.38;;;11.90;100.00
17060;BME280;8646;49.716;9.266;2024-03-29T15:14:48;98634.19;;;11.96;100.00
17060;BME280;8646;49.716;9.266;2024-03-29T15:17:50;98594.19;;;12.00;100.00
17060;BME280;8646;49.716;9.266;2024-03-29T15:20:54;98596.31;;;11.71;100.00
17060;BME280;8646;49.716;9.266;2024-03-29T15:23:58;98619.25;;;11.91;100.00
17060;BME280;8646;49.716;9.266;2024-03-29T15:27:00;98628.41;;;12.01;100.00
17060;BME280;8646;49.716;9.266;2024-03-29T15:30:04;98635.34;;;12.05;100.00
17060;BME280;8646;49.716;9.266;2024-03-29T15:33:05;98622.94;;;11.90;100.00
17060;BME280;8646;49.716;9.266;2024-03-29T15:36:09;98615.56;;;11.92;100.00
17060;BME280;8646;49.716;9.266;2024-03-29T15:39:14;98628.94;;;12.06;100.00
17060;BME280;8646;49.716;9.266;2024-03-29T15:42:20;98618.31;;;12.03;100.00
17060;BME280;8646;49.716;9.266;2024-03-29T15:45:22;98600.50;;;12.11;100.00
17060;BME280;8646;49.716;9.266;2024-03-29T15:48:24;98593.16;;;12.01;100.00
17060;BME280;8646;49.716;9.266;2024-03-29T15:51:26;98628.25;;;12.15;100.00
17060;BME280;8646;49.716;9.266;2024-03-29T15:54:29;98604.00;;;12.01;100.00
17060;BME280;8646;49.716;9.266;2024-03-29T15:57:32;98607.00;;;12.09;100.00
17060;BME280;8646;49.716;9.266;2024-03-29T16:00:34;98617.47;;;12.02;100.00
17060;BME280;8646;49.716;9.266;2024-03-29T16:03:38;98563.50;;;11.75;100.00
17060;BME280;8646;49.716;9.266;2024-03-29T16:06:40;98593.72;;;12.17;100.00
17060;BME280;8646;49.716;9.266;2024-03-29T16:09:43;98592.41;;;12.22;100.00
17060;BME280;8646;49.716;9.266;2024-03-29T16:12:45;98589.81;;;12.21;100.00
17060;BME280;8646;49.716;9.266;2024-03-29T16:15:47;98597.75;;;12.35;100.00
17060;BME280;8646;49.716;9.266;2024-03-29T16:18:49;98585.66;;;12.28;100.00
17060;BME280;8646;49.716;9.266;2024-03-29T16:21:51;98588.38;;;12.28;100.00
17060;BME280;8646;49.716;9.266;2024-03-29T16:24:54;98554.25;;;12.02;100.00
17060;BME280;8646;49.716;9.266;2024-03-29T16:27:56;98593.63;;;12.18;100.00